Terminal Aerodrome Forecast
Issued by NWS Tampa Bay Area, FL

Home | Current Version | Previous Version | Text Only | Print | Product List | Glossary On
Versions: 1 2 3 4 5 6 7 8 9 10 11 12 13 14 15 16 17
000
FTUS42 KTBW 300532
TAFFMY
TAF
KFMY 300532Z 3006/0106 VRB03KT P6SM FEW070
     FM301300 13007KT P6SM FEW060 FEW250
     FM302000 18010KT P6SM FEW050 SCT120
     FM010100 17006KT P6SM FEW100
     FM010400 VRB04KT P6SM FEW200=

USA.gov is the U.S. government's official web portal to all federal, state and local government web resources and services.